createdAt,value
2023-04-10T00:02:15.682Z,19.70
2023-04-10T00:04:44.166Z,19.60
2023-04-10T00:07:12.466Z,19.60
2023-04-10T00:09:40.717Z,19.90
2023-04-10T00:12:08.749Z,19.50
2023-04-10T00:14:36.689Z,19.80
2023-04-10T00:17:06.097Z,19.80
2023-04-10T00:19:34.219Z,19.70
2023-04-10T00:22:02.308Z,19.90
2023-04-10T00:24:30.268Z,19.90
2023-04-10T00:26:58.352Z,19.80
2023-04-10T00:29:26.463Z,19.60
2023-04-10T00:31:54.478Z,19.60
2023-04-10T00:34:25.691Z,19.70
2023-04-10T00:36:53.643Z,19.70
2023-04-10T00:39:21.619Z,19.70
2023-04-10T00:41:49.597Z,19.90
2023-04-10T00:44:17.628Z,19.70
2023-04-10T00:46:45.670Z,19.80
2023-04-10T00:49:14.281Z,19.90
2023-04-10T00:51:43.700Z,19.70
2023-04-10T00:54:13.110Z,19.70
2023-04-10T00:56:41.501Z,19.70
2023-04-10T00:59:09.526Z,19.70
2023-04-10T01:01:40.676Z,19.80
2023-04-10T01:04:09.756Z,19.60
2023-04-10T01:06:54.436Z,19.70
2023-04-10T01:09:40.653Z,19.70
2023-04-10T01:12:26.715Z,19.70
2023-04-10T01:15:03.512Z,19.50
2023-04-10T01:17:38.401Z,19.70
2023-04-10T01:20:11.276Z,19.50
2023-04-10T01:23:09.953Z,19.50
2023-04-10T01:25:46.260Z,19.60
2023-04-10T01:28:36.120Z,19.70
2023-04-10T01:31:09.740Z,19.70
2023-04-10T01:33:41.947Z,19.50
2023-04-10T01:36:11.863Z,19.50
2023-04-10T01:38:43.874Z,19.50
2023-04-10T01:41:11.952Z,19.50
2023-04-10T01:43:42.694Z,19.50
2023-04-10T01:46:13.581Z,19.60
2023-04-10T01:48:42.030Z,19.70
2023-04-10T01:51:12.011Z,19.60
2023-04-10T01:53:41.024Z,19.50
2023-04-10T01:56:10.173Z,19.70
2023-04-10T01:58:38.289Z,19.80
2023-04-10T02:01:07.617Z,19.80
2023-04-10T02:03:37.487Z,19.70
2023-04-10T02:06:17.762Z,19.60
2023-04-10T02:08:55.672Z,19.60
2023-04-10T02:11:35.260Z,19.60
2023-04-10T02:14:09.315Z,19.50
2023-04-10T02:16:39.411Z,19.70
2023-04-10T02:19:10.059Z,19.60
2023-04-10T02:21:39.825Z,19.60
2023-04-10T02:24:08.178Z,19.70
2023-04-10T02:26:46.825Z,19.80
2023-04-10T02:29:15.179Z,19.70
2023-04-10T02:31:43.388Z,19.70
2023-04-10T02:34:13.621Z,19.70
2023-04-10T02:36:41.776Z,19.80
2023-04-10T02:39:09.779Z,19.40
2023-04-10T02:41:37.745Z,19.60
2023-04-10T02:44:06.800Z,19.70
2023-04-10T02:46:34.930Z,19.70
2023-04-10T02:49:02.977Z,19.70
2023-04-10T02:51:36.615Z,19.80
2023-04-10T02:54:05.190Z,19.50
2023-04-10T02:56:35.520Z,19.50
2023-04-10T02:59:03.671Z,19.40
2023-04-10T03:01:31.953Z,19.80
2023-04-10T03:04:00.900Z,19.60
2023-04-10T03:06:28.940Z,19.50
2023-04-10T03:08:58.318Z,19.50
2023-04-10T03:11:26.958Z,19.60
2023-04-10T03:13:55.291Z,19.70
2023-04-10T03:16:23.548Z,19.80
2023-04-10T03:18:51.612Z,19.50
2023-04-10T03:21:19.606Z,19.60
2023-04-10T03:23:47.581Z,19.40
2023-04-10T03:26:16.957Z,19.50
2023-04-10T03:28:44.995Z,19.70
2023-04-10T03:31:13.089Z,19.60
2023-04-10T03:33:41.142Z,19.60
2023-04-10T03:36:10.338Z,19.40
2023-04-10T03:38:38.328Z,19.50
2023-04-10T03:41:07.302Z,19.50
2023-04-10T03:43:36.630Z,19.60
2023-04-10T03:46:04.697Z,19.30
2023-04-10T03:48:33.466Z,19.70
2023-04-10T03:51:01.446Z,19.30
2023-04-10T03:53:29.441Z,19.50
2023-04-10T03:55:57.495Z,19.60
2023-04-10T03:58:25.590Z,19.50
2023-04-10T04:00:54.949Z,19.70
2023-04-10T04:03:23.339Z,19.70
2023-04-10T04:05:52.083Z,19.70
2023-04-10T04:08:20.286Z,19.50
2023-04-10T04:10:48.410Z,19.60
2023-04-10T04:13:16.475Z,19.70
2023-04-10T04:15:44.450Z,19.40
2023-04-10T04:18:13.740Z,19.50
2023-04-10T04:20:41.694Z,19.40
2023-04-10T04:23:09.668Z,19.50
2023-04-10T04:25:37.717Z,19.50
2023-04-10T04:28:05.791Z,19.70
2023-04-10T04:30:33.789Z,19.60
2023-04-10T04:33:01.801Z,19.50
2023-04-10T04:35:31.206Z,19.70
2023-04-10T04:37:59.281Z,19.10
2023-04-10T04:40:27.241Z,19.40
2023-04-10T04:42:55.255Z,19.30
2023-04-10T04:45:23.254Z,19.60
2023-04-10T04:47:51.351Z,19.70
2023-04-10T04:50:19.624Z,19.30
2023-04-10T04:52:49.750Z,19.60
2023-04-10T04:55:17.971Z,19.10
2023-04-10T04:57:45.987Z,19.40
2023-04-10T05:00:14.856Z,19.70
2023-04-10T05:02:42.993Z,19.60
2023-04-10T05:05:11.101Z,19.40
2023-04-10T05:07:39.126Z,19.60
2023-04-10T05:10:10.261Z,19.60
2023-04-10T05:12:38.324Z,19.40
2023-04-10T05:15:08.452Z,19.40
2023-04-10T05:17:37.771Z,19.50
2023-04-10T05:20:07.392Z,19.20
2023-04-10T05:22:35.470Z,19.20
2023-04-10T05:25:03.698Z,19.60
2023-04-10T05:27:33.026Z,19.50
2023-04-10T05:30:01.257Z,19.60
2023-04-10T05:32:29.223Z,19.60
2023-04-10T05:34:57.350Z,19.60
2023-04-10T05:37:25.343Z,19.80
2023-04-10T05:39:53.323Z,19.50
2023-04-10T05:42:23.756Z,19.40
2023-04-10T05:44:53.701Z,19.70
2023-04-10T05:47:21.751Z,19.50
2023-04-10T05:49:49.776Z,19.50
2023-04-10T05:52:17.748Z,19.70
2023-04-10T05:54:46.979Z,19.50
2023-04-10T05:57:15.001Z,19.40
2023-04-10T05:59:42.949Z,19.30
2023-04-10T06:02:12.407Z,19.50
2023-04-10T06:04:40.738Z,19.70
2023-04-10T06:07:08.866Z,19.60
2023-04-10T06:09:36.956Z,19.40
2023-04-10T06:12:05.360Z,19.60
2023-04-10T06:14:33.334Z,19.60
2023-04-10T06:17:01.621Z,19.80
2023-04-10T06:19:30.889Z,19.60
2023-04-10T06:21:58.930Z,19.50
2023-04-10T06:24:26.918Z,19.60
2023-04-10T06:26:55.011Z,19.80
2023-04-10T06:29:23.018Z,19.80
2023-04-10T06:31:51.185Z,19.70
2023-04-10T06:34:19.406Z,19.70
2023-04-10T06:36:48.756Z,19.60
2023-04-10T06:39:17.356Z,19.90
2023-04-10T06:41:45.352Z,19.80
2023-04-10T06:44:13.374Z,19.60
2023-04-10T06:46:41.507Z,20.00
2023-04-10T06:49:09.614Z,19.70
2023-04-10T06:51:37.634Z,19.70
2023-04-10T06:54:06.973Z,20.00
2023-04-10T06:56:34.945Z,19.90
2023-04-10T06:59:03.184Z,20.20
2023-04-10T07:01:31.249Z,20.10
2023-04-10T07:03:59.243Z,19.70
2023-04-10T07:06:27.496Z,20.10
2023-04-10T07:08:55.828Z,19.90
2023-04-10T07:11:25.499Z,20.00
2023-04-10T07:13:58.275Z,20.10
2023-04-10T07:16:27.405Z,20.50
2023-04-10T07:18:55.927Z,20.30
2023-04-10T07:21:24.276Z,20.00
2023-04-10T07:23:52.406Z,20.20
2023-04-10T07:26:20.600Z,20.20
2023-04-10T07:28:49.894Z,20.20
2023-04-10T07:31:18.656Z,20.20
2023-04-10T07:33:47.145Z,20.20
2023-04-10T07:36:15.241Z,20.10
2023-04-10T07:38:43.718Z,20.40
2023-04-10T07:41:12.187Z,20.30
2023-04-10T07:43:40.367Z,20.00
2023-04-10T07:46:09.899Z,20.20
2023-04-10T07:48:37.923Z,20.30
2023-04-10T07:51:09.089Z,20.20
2023-04-10T07:53:37.317Z,20.40
2023-04-10T07:56:06.274Z,20.30
2023-04-10T07:58:34.332Z,20.40
2023-04-10T08:01:02.264Z,20.20
2023-04-10T08:03:31.757Z,20.30
2023-04-10T08:05:59.866Z,20.40
2023-04-10T08:08:27.959Z,20.30
2023-04-10T08:10:55.946Z,20.20
2023-04-10T08:13:23.880Z,20.30
2023-04-10T08:15:52.177Z,20.20
2023-04-10T08:18:20.198Z,20.50
2023-04-10T08:20:49.542Z,20.30
2023-04-10T08:23:20.908Z,20.50
2023-04-10T08:25:49.308Z,20.60
2023-04-10T08:28:17.339Z,20.70
2023-04-10T08:30:45.386Z,20.40
2023-04-10T08:33:13.475Z,20.90
2023-04-10T08:35:41.492Z,20.40
2023-04-10T08:38:14.179Z,20.90
2023-04-10T08:40:44.459Z,20.90
2023-04-10T08:43:12.708Z,20.50
2023-04-10T08:45:42.294Z,20.40
2023-04-10T08:48:12.294Z,20.50
2023-04-10T08:50:44.071Z,20.80
2023-04-10T08:53:15.782Z,20.40
2023-04-10T08:55:45.327Z,20.50
2023-04-10T08:58:14.287Z,20.90
2023-04-10T09:00:42.368Z,21.20
2023-04-10T09:03:14.057Z,20.50
2023-04-10T09:05:42.454Z,21.10
2023-04-10T09:08:10.916Z,21.10
2023-04-10T09:10:40.475Z,21.20
2023-04-10T09:13:08.529Z,20.80
2023-04-10T09:15:58.299Z,21.20
2023-04-10T09:18:46.603Z,21.20
2023-04-10T09:21:18.980Z,21.20
2023-04-10T09:23:48.878Z,21.20
2023-04-10T09:26:32.389Z,20.90
2023-04-10T09:29:03.163Z,20.90
2023-04-10T09:31:36.150Z,21.30
2023-04-10T09:34:14.381Z,21.10
2023-04-10T09:36:42.942Z,21.20
2023-04-10T09:39:13.069Z,21.00
2023-04-10T09:41:55.260Z,20.90
2023-04-10T09:44:32.052Z,20.80
2023-04-10T09:47:00.468Z,21.30
2023-04-10T09:49:28.514Z,21.30
2023-04-10T09:51:56.498Z,21.00
2023-04-10T09:54:37.942Z,21.30
2023-04-10T09:57:09.094Z,21.10
2023-04-10T09:59:42.618Z,21.30
2023-04-10T10:02:11.985Z,21.30
2023-04-10T10:04:41.546Z,21.10
2023-04-10T10:07:09.737Z,21.20
2023-04-10T10:09:38.545Z,21.10
2023-04-10T10:12:10.317Z,21.40
2023-04-10T10:14:48.353Z,21.10
2023-04-10T10:17:19.652Z,21.40
2023-04-10T10:19:57.866Z,21.50
2023-04-10T10:22:28.697Z,21.10
2023-04-10T10:24:59.842Z,21.20
2023-04-10T10:27:32.471Z,21.30
2023-04-10T10:30:08.472Z,21.00
2023-04-10T10:32:47.752Z,21.20
2023-04-10T10:35:16.476Z,21.30
2023-04-10T10:37:45.972Z,21.50
2023-04-10T10:40:20.530Z,21.50
2023-04-10T10:42:58.963Z,21.60
2023-04-10T10:45:33.659Z,21.40
2023-04-10T10:48:01.744Z,21.50
2023-04-10T10:50:53.462Z,21.30
2023-04-10T10:53:44.934Z,21.60
2023-04-10T10:56:37.823Z,21.50
2023-04-10T10:59:07.141Z,21.30
2023-04-10T11:01:35.173Z,21.40
2023-04-10T11:04:45.574Z,21.40
2023-04-10T11:07:14.207Z,21.40
2023-04-10T11:09:51.343Z,21.60
2023-04-10T11:12:23.044Z,21.50
2023-04-10T11:15:04.834Z,21.40
2023-04-10T11:17:51.516Z,21.50
2023-04-10T11:20:21.949Z,21.60
2023-04-10T11:23:09.029Z,21.40
2023-04-10T11:25:51.380Z,21.30
2023-04-10T11:28:38.896Z,21.50
2023-04-10T11:31:21.728Z,21.60
2023-04-10T11:33:51.961Z,21.30
2023-04-10T11:36:20.017Z,21.30
2023-04-10T11:38:56.913Z,21.40
2023-04-10T11:41:30.563Z,21.60
2023-04-10T11:43:59.227Z,21.50
2023-04-10T11:46:29.364Z,21.30
2023-04-10T11:48:59.814Z,21.40
2023-04-10T11:51:28.276Z,21.50
2023-04-10T11:54:07.856Z,21.30
2023-04-10T11:56:37.294Z,21.60
2023-04-10T11:59:07.752Z,21.50
2023-04-10T12:01:38.107Z,21.50
2023-04-10T12:04:15.851Z,21.50
2023-04-10T12:06:46.852Z,21.70
2023-04-10T12:09:17.089Z,21.60
2023-04-10T12:11:52.815Z,21.20
2023-04-10T12:14:21.890Z,21.40
2023-04-10T12:16:52.564Z,21.30
2023-04-10T12:19:21.300Z,21.50
2023-04-10T12:21:49.909Z,21.50
2023-04-10T12:24:43.190Z,21.30
2023-04-10T12:27:18.305Z,21.40
2023-04-10T12:29:46.519Z,21.60
2023-04-10T12:32:16.697Z,21.40
2023-04-10T12:34:51.428Z,21.70
2023-04-10T12:37:19.617Z,21.30
2023-04-10T12:39:47.752Z,21.50
2023-04-10T12:42:18.862Z,21.60
2023-04-10T12:44:55.240Z,21.60
2023-04-10T12:47:25.794Z,21.50
2023-04-10T12:50:11.253Z,21.50
2023-04-10T12:52:41.460Z,21.30
2023-04-10T12:55:15.722Z,21.60
2023-04-10T12:57:45.856Z,21.50
2023-04-10T13:00:16.949Z,21.80
2023-04-10T13:02:47.267Z,21.60
2023-04-10T13:05:15.858Z,21.60
2023-04-10T13:07:43.832Z,21.50
2023-04-10T13:10:12.214Z,21.60
2023-04-10T13:12:41.841Z,21.50
2023-04-10T13:15:11.451Z,21.60
2023-04-10T13:17:40.925Z,22.00
2023-04-10T13:20:11.973Z,21.60
2023-04-10T13:22:40.280Z,21.90
2023-04-10T13:25:09.460Z,21.50
2023-04-10T13:27:37.466Z,21.60
2023-04-10T13:30:06.676Z,21.60
2023-04-10T13:32:34.731Z,21.40
2023-04-10T13:35:02.736Z,21.70
2023-04-10T13:37:32.158Z,21.50
2023-04-10T13:40:00.164Z,21.80
2023-04-10T13:42:28.595Z,21.40
2023-04-10T13:44:56.717Z,21.60
2023-04-10T13:47:24.749Z,21.60
2023-04-10T13:49:52.791Z,21.90
2023-04-10T13:52:20.823Z,21.70
2023-04-10T13:54:50.128Z,21.70
2023-04-10T13:57:18.071Z,21.50
2023-04-10T13:59:46.044Z,21.60
2023-04-10T14:02:14.119Z,21.60
2023-04-10T14:04:42.658Z,21.80
2023-04-10T14:07:11.754Z,22.00
2023-04-10T14:09:39.750Z,21.50
2023-04-10T14:12:09.049Z,21.50
2023-04-10T14:14:37.016Z,21.60
2023-04-10T14:17:05.302Z,21.70
2023-04-10T14:19:34.825Z,21.60
2023-04-10T14:22:02.848Z,21.60
2023-04-10T14:24:30.832Z,21.50
2023-04-10T14:27:01.199Z,21.70
2023-04-10T14:29:37.286Z,21.50
2023-04-10T14:32:07.602Z,21.50
2023-04-10T14:34:35.718Z,21.40
2023-04-10T14:37:03.746Z,21.30
2023-04-10T14:39:32.811Z,21.50
2023-04-10T14:42:02.101Z,21.60
2023-04-10T14:44:31.797Z,21.60
2023-04-10T14:46:59.904Z,21.40
2023-04-10T14:49:27.907Z,21.60
2023-04-10T14:51:55.846Z,21.60
2023-04-10T14:54:24.132Z,21.80
2023-04-10T14:56:52.324Z,21.70
2023-04-10T14:59:20.363Z,21.50
2023-04-10T15:01:49.709Z,21.70
2023-04-10T15:04:17.798Z,21.80
2023-04-10T15:06:45.802Z,21.70
2023-04-10T15:09:13.914Z,21.50
2023-04-10T15:11:41.958Z,21.50
2023-04-10T15:14:11.964Z,21.70
2023-04-10T15:16:39.984Z,21.60
2023-04-10T15:19:09.321Z,21.60
2023-04-10T15:21:37.348Z,21.40
2023-04-10T15:24:05.594Z,21.70
2023-04-10T15:26:33.665Z,21.90
2023-04-10T15:29:01.634Z,21.60
2023-04-10T15:31:29.617Z,21.40
2023-04-10T15:33:57.701Z,21.60
2023-04-10T15:36:27.871Z,21.50
2023-04-10T15:38:55.858Z,21.60
2023-04-10T15:41:23.925Z,21.50
2023-04-10T15:43:52.003Z,21.50
2023-04-10T15:46:20.068Z,21.50
2023-04-10T15:48:48.162Z,21.60
2023-04-10T15:51:16.312Z,21.30
2023-04-10T15:53:45.673Z,21.70
2023-04-10T15:56:15.917Z,21.40
2023-04-10T15:58:44.123Z,21.40
2023-04-10T16:01:12.163Z,21.30
2023-04-10T16:03:40.387Z,21.50
2023-04-10T16:06:09.723Z,21.40
2023-04-10T16:08:37.755Z,21.30
2023-04-10T16:11:07.570Z,21.50
2023-04-10T16:13:35.626Z,21.30
2023-04-10T16:16:04.578Z,21.60
2023-04-10T16:18:32.643Z,21.30
2023-04-10T16:21:00.690Z,21.50
2023-04-10T16:23:28.612Z,21.40
2023-04-10T16:25:56.680Z,21.60
2023-04-10T16:28:26.475Z,21.40
2023-04-10T16:30:54.623Z,21.40
2023-04-10T16:33:22.639Z,21.50
2023-04-10T16:35:50.706Z,21.10
2023-04-10T16:38:18.667Z,21.10
2023-04-10T16:40:46.730Z,21.20
2023-04-10T16:43:14.775Z,21.30
2023-04-10T16:45:44.098Z,21.30
2023-04-10T16:48:12.117Z,21.10
2023-04-10T16:50:40.090Z,21.00
2023-04-10T16:53:08.098Z,21.10
2023-04-10T16:55:36.193Z,21.10
2023-04-10T16:58:04.456Z,21.20
2023-04-10T17:00:32.474Z,21.10
2023-04-10T17:03:02.055Z,21.00
2023-04-10T17:05:35.640Z,21.10
2023-04-10T17:08:05.199Z,21.00
2023-04-10T17:10:33.204Z,21.10
2023-04-10T17:13:01.219Z,21.20
2023-04-10T17:15:29.175Z,21.30
2023-04-10T17:17:57.209Z,21.00
2023-04-10T17:20:28.084Z,21.20
2023-04-10T17:22:56.183Z,20.90
2023-04-10T17:25:24.173Z,20.70
2023-04-10T17:27:52.233Z,21.00
2023-04-10T17:30:20.728Z,21.10
2023-04-10T17:32:49.309Z,21.10
2023-04-10T17:35:17.617Z,20.70
2023-04-10T17:37:46.991Z,21.20
2023-04-10T17:40:15.098Z,20.70
2023-04-10T17:42:43.116Z,21.10
2023-04-10T17:45:12.776Z,21.20
2023-04-10T17:47:41.114Z,20.80
2023-04-10T17:50:10.644Z,21.10
2023-04-10T17:52:38.837Z,20.50
2023-04-10T17:55:09.713Z,20.70
2023-04-10T17:57:37.666Z,20.70
2023-04-10T18:00:09.804Z,20.50
2023-04-10T18:02:38.087Z,20.50
2023-04-10T18:05:07.075Z,20.60
2023-04-10T18:07:35.171Z,20.70
2023-04-10T18:10:03.161Z,20.50
2023-04-10T18:12:32.451Z,21.10
2023-04-10T18:15:00.771Z,20.90
2023-04-10T18:17:28.796Z,20.80
2023-04-10T18:19:57.470Z,20.70
2023-04-10T18:22:25.619Z,20.50
2023-04-10T18:24:53.752Z,21.00
2023-04-10T18:27:21.785Z,20.60
2023-04-10T18:29:51.152Z,20.70
2023-04-10T18:32:19.111Z,20.50
2023-04-10T18:34:47.107Z,20.50
2023-04-10T18:37:15.309Z,20.40
2023-04-10T18:39:43.250Z,20.80
2023-04-10T18:42:11.511Z,20.50
2023-04-10T18:44:39.576Z,20.90
2023-04-10T18:47:10.839Z,20.70
2023-04-10T18:49:38.964Z,20.50
2023-04-10T18:52:07.392Z,20.80
2023-04-10T18:54:35.901Z,20.50
2023-04-10T18:57:03.911Z,20.70
2023-04-10T18:59:32.004Z,20.80
2023-04-10T19:02:00.109Z,20.70
2023-04-10T19:04:29.772Z,20.50
2023-04-10T19:06:57.790Z,20.50
2023-04-10T19:09:25.800Z,20.60
2023-04-10T19:11:53.880Z,20.90
2023-04-10T19:14:21.914Z,20.40
2023-04-10T19:16:49.858Z,20.80
2023-04-10T19:19:17.808Z,20.70
2023-04-10T19:21:47.141Z,20.40
2023-04-10T19:24:15.142Z,20.50
2023-04-10T19:26:43.172Z,20.70
2023-04-10T19:29:11.370Z,20.90
2023-04-10T19:31:39.434Z,20.40
2023-04-10T19:34:11.056Z,20.40
2023-04-10T19:36:39.118Z,20.40
2023-04-10T19:39:08.601Z,20.60
2023-04-10T19:41:41.633Z,20.60
2023-04-10T19:44:09.733Z,20.40
2023-04-10T19:46:37.740Z,20.40
2023-04-10T19:49:05.775Z,20.60
2023-04-10T19:51:34.025Z,20.70
2023-04-10T19:54:02.004Z,20.50
2023-04-10T19:56:31.424Z,20.70
2023-04-10T19:58:59.560Z,20.60
2023-04-10T20:01:27.808Z,20.40
2023-04-10T20:03:55.941Z,20.30
2023-04-10T20:06:24.196Z,20.60
2023-04-10T20:08:52.560Z,20.40
2023-04-10T20:11:20.743Z,20.50
2023-04-10T20:13:50.017Z,20.50
2023-04-10T20:16:18.069Z,20.80
2023-04-10T20:18:46.070Z,20.30
2023-04-10T20:21:14.110Z,20.50
2023-04-10T20:23:42.021Z,20.60
2023-04-10T20:26:12.092Z,20.50
2023-04-10T20:28:40.380Z,20.30
2023-04-10T20:31:10.877Z,20.60
2023-04-10T20:33:38.955Z,20.50
2023-04-10T20:36:07.746Z,20.30
2023-04-10T20:38:35.812Z,20.20
2023-04-10T20:41:03.781Z,20.40
2023-04-10T20:43:33.128Z,20.40
2023-04-10T20:46:05.055Z,20.40
2023-04-10T20:48:35.575Z,20.60
2023-04-10T20:51:03.561Z,20.80
2023-04-10T20:53:31.797Z,20.30
2023-04-10T20:56:00.852Z,20.50
2023-04-10T20:58:28.896Z,20.60
2023-04-10T21:00:57.035Z,20.30
2023-04-10T21:03:25.210Z,20.30
2023-04-10T21:05:54.654Z,20.30
2023-04-10T21:08:22.807Z,20.60
2023-04-10T21:10:51.332Z,20.30
2023-04-10T21:13:19.321Z,20.30
2023-04-10T21:15:49.548Z,20.30
2023-04-10T21:18:17.699Z,20.30
2023-04-10T21:20:45.973Z,20.40
2023-04-10T21:23:15.307Z,20.20
2023-04-10T21:25:51.431Z,20.20
2023-04-10T21:28:19.545Z,20.50
2023-04-10T21:30:47.862Z,20.30
2023-04-10T21:33:15.986Z,20.70
2023-04-10T21:35:44.873Z,20.30
2023-04-10T21:38:14.915Z,20.30
2023-04-10T21:40:43.007Z,20.40
2023-04-10T21:43:11.017Z,20.20
2023-04-10T21:45:39.862Z,20.30
2023-04-10T21:48:07.925Z,20.10
2023-04-10T21:50:36.004Z,20.00
2023-04-10T21:53:04.074Z,19.90
2023-04-10T21:55:33.503Z,20.00
2023-04-10T21:58:01.463Z,20.20
2023-04-10T22:00:29.418Z,19.90
2023-04-10T22:02:57.773Z,19.90
2023-04-10T22:05:25.917Z,20.20
2023-04-10T22:07:54.034Z,20.30
2023-04-10T22:10:21.995Z,20.20
2023-04-10T22:12:51.315Z,20.20
2023-04-10T22:15:20.514Z,20.30
2023-04-10T22:17:48.651Z,20.00
2023-04-10T22:20:17.532Z,20.10
2023-04-10T22:22:45.538Z,20.00
2023-04-10T22:25:13.479Z,20.00
2023-04-10T22:27:41.430Z,20.10
2023-04-10T22:30:12.664Z,19.90
2023-04-10T22:32:40.805Z,20.10
2023-04-10T22:35:09.652Z,20.10
2023-04-10T22:37:37.630Z,20.30
2023-04-10T22:40:07.132Z,20.10
2023-04-10T22:42:35.388Z,20.10
2023-04-10T22:45:03.568Z,19.90
2023-04-10T22:47:32.910Z,20.20
2023-04-10T22:50:00.850Z,20.10
2023-04-10T22:52:28.792Z,20.20
2023-04-10T22:54:56.783Z,20.10
2023-04-10T22:57:24.775Z,19.70
2023-04-10T22:59:52.720Z,19.90
2023-04-10T23:02:20.747Z,20.30
2023-04-10T23:04:50.117Z,19.90
2023-04-10T23:07:18.216Z,20.10
2023-04-10T23:09:46.154Z,20.20
2023-04-10T23:12:14.096Z,19.90
2023-04-10T23:14:42.049Z,20.00
2023-04-10T23:17:10.030Z,20.10
2023-04-10T23:19:38.029Z,20.00
2023-04-10T23:22:07.341Z,20.00
2023-04-10T23:24:35.301Z,19.90
2023-04-10T23:27:03.430Z,19.80
2023-04-10T23:29:31.377Z,20.00
2023-04-10T23:31:59.369Z,19.80
2023-04-10T23:34:27.403Z,20.20
2023-04-10T23:36:55.706Z,20.20
2023-04-10T23:39:25.307Z,20.10
2023-04-10T23:41:53.407Z,20.00
2023-04-10T23:44:21.408Z,20.10
2023-04-10T23:46:50.346Z,20.00
2023-04-10T23:49:18.646Z,19.70
2023-04-10T23:51:46.974Z,19.90
2023-04-10T23:54:14.939Z,20.00
2023-04-10T23:56:44.326Z,19.80
2023-04-10T23:59:14.245Z,19.80
